Talitha — ZCAN7 — position and weather

sailwx.info

Track history (hours):
 
Tides and Currents Weather Stations Pressure Air Temp Water Temp Dewpoint Dewpoint Depression Visibility Wind Speed Wind Dir Waves Ship Positions

Talitha

Last reported at 2015-Jul-03 10:08 UTC. Time now 2015-Jul-04 10:12 UTC.
Position N 42°23' E 011°13'.

Length 80 m; draft 4.5 m.

Type: Pleasure craft. MMSI: 310051000.

Date/timePositionNaut miles runAvg speedWind from/ knotsBaromVisibWave heightAir tempDewpointWater temp
2015-Jul-03 10:08N 42°23' E 011°13'0 0.0
2015-Jul-02 19:27N 42°23' E 011°13'0 0.0
2015-Jul-02 12:33N 42°24' E 011°13'71 7.1
2015-Jul-02 02:33N 41°25' E 012°06'1612.3
2015-Jul-02 01:16N 41°13' E 012°19'1012.1
2015-Jul-02 00:28N 41°05' E 012°28'1312.3
2015-Jul-01 23:26N 40°57' E 012°41'1112.4
2015-Jul-01 22:33N 40°51' E 012°53'1312.6
2015-Jul-01 21:33N 40°47' E 013°09'1212.5
2015-Jul-01 20:34N 40°44' E 013°24'1212.4
2015-Jul-01 19:33N 40°41' E 013°40'1212.3
2015-Jul-01 18:34N 40°39' E 013°56'1211.9
2015-Jul-01 17:33N 40°44' E 014°10'6 1.2
2015-Jul-01 12:31N 40°50' E 014°14'0 0.0
2015-Jul-01 11:28N 40°50' E 014°14'0 0.0
2015-Jul-01 10:31N 40°50' E 014°14'0 0.0
2015-Jul-01 09:31N 40°50' E 014°14'0 0.0
2015-Jul-01 08:28N 40°50' E 014°14'0 0.0
2015-Jun-30 06:13N 40°49' E 014°14'6 8.4
2015-Jun-30 05:33N 40°46' E 014°09'1110.6
2015-Jun-30 04:33N 40°46' E 013°55'1 1.1
2015-Jun-30 03:31N 40°45' E 013°53'0 0.0
2015-Jun-30 02:31N 40°45' E 013°53'0 0.0
2015-Jun-30 01:31N 40°45' E 013°53'0 0.0
2015-Jun-30 00:31N 40°45' E 013°53'0 0.0
2015-Jun-29 23:31N 40°45' E 013°53'0 0.0
2015-Jun-29 22:31N 40°45' E 013°53'0 0.0
2015-Jun-29 21:31N 40°45' E 013°53'0 0.0
2015-Jun-29 20:31N 40°45' E 013°53'0 0.0
2015-Jun-29 19:31N 40°45' E 013°53'0 0.0
2015-Jun-29 18:31N 40°45' E 013°53'0 0.0
2015-Jun-29 17:31N 40°45' E 013°53'0 0.0
2015-Jun-29 16:31N 40°45' E 013°53'0 0.0
2015-Jun-29 15:31N 40°45' E 013°53'0 0.0
2015-Jun-29 14:31N 40°45' E 013°53'0 0.0
2015-Jun-29 13:33N 40°45' E 013°53'0 0.0
2015-Jun-29 12:29N 40°45' E 013°53'0 0.0
2015-Jun-29 11:26N 40°45' E 013°53'0 0.0
2015-Jun-29 10:32N 40°45' E 013°53'0 0.0
2015-Jun-29 09:32N 40°45' E 013°53'0 0.0
2015-Jun-29 08:32N 40°45' E 013°53'0 0.0
2015-Jun-29 07:26N 40°45' E 013°53'0 0.0
2015-Jun-29 06:20N 40°45' E 013°53'0 0.0
2015-Jun-29 05:32N 40°45' E 013°53'0 0.0
2015-Jun-29 04:23N 40°45' E 013°53'0 0.0
2015-Jun-29 03:32N 40°45' E 013°53'0 0.0
2015-Jun-29 02:32N 40°45' E 013°53'0 0.0
2015-Jun-29 01:29N 40°45' E 013°53'0 0.0
2015-Jun-29 00:32N 40°45' E 013°53'0 0.0
2015-Jun-28 23:32N 40°45' E 013°53'0 0.0
2015-Jun-28 22:32N 40°45' E 013°53'0 0.0
2015-Jun-28 21:32N 40°45' E 013°53'0 0.0
2015-Jun-28 20:32N 40°45' E 013°53'0 0.0
2015-Jun-28 19:26N 40°45' E 013°53'0 0.0
2015-Jun-28 18:32N 40°45' E 013°53'0 0.0
2015-Jun-28 17:32N 40°45' E 013°53'0 0.0
2015-Jun-28 16:32N 40°45' E 013°53'0 0.0
2015-Jun-28 15:29N 40°45' E 013°53'0 0.0
2015-Jun-28 14:26N 40°45' E 013°53'0 0.0
2015-Jun-28 13:32N 40°45' E 013°53'0 0.0
2015-Jun-28 12:32N 40°45' E 013°53'0 0.0
2015-Jun-28 11:32N 40°45' E 013°53'0 0.0
2015-Jun-28 10:29N 40°45' E 013°53'0 0.0
2015-Jun-28 09:29N 40°45' E 013°53'0 0.0
2015-Jun-28 08:26N 40°45' E 013°53'0 0.0
2015-Jun-28 07:32N 40°45' E 013°53'0 0.0
2015-Jun-28 06:32N 40°45' E 013°53'0 0.0
2015-Jun-28 05:29N 40°45' E 013°53'0 0.0
2015-Jun-28 04:32N 40°45' E 013°53'0 0.0
2015-Jun-28 03:32N 40°45' E 013°53'0 0.0
2015-Jun-28 02:32N 40°45' E 013°53'0 0.0
2015-Jun-28 01:32N 40°45' E 013°53'0 0.0
2015-Jun-28 00:32N 40°45' E 013°53'0 0.0
2015-Jun-27 23:32N 40°45' E 013°53'0 0.0
2015-Jun-27 22:32N 40°45' E 013°53'0 0.0
2015-Jun-27 21:32N 40°45' E 013°53'0 0.0
2015-Jun-27 20:32N 40°45' E 013°53'0 0.0
2015-Jun-27 19:32N 40°45' E 013°53'0 0.0
2015-Jun-27 18:32N 40°45' E 013°53'0 0.0
2015-Jun-27 17:29N 40°45' E 013°53'0 0.0
2015-Jun-27 16:32N 40°45' E 013°53'0 0.0
2015-Jun-27 15:29N 40°45' E 013°53'0 0.0
2015-Jun-27 14:32N 40°45' E 013°53'0 0.0
2015-Jun-27 13:32N 40°45' E 013°53'0 0.0
2015-Jun-27 12:32N 40°45' E 013°53'0 0.0
2015-Jun-27 11:32N 40°45' E 013°53'0 0.0
2015-Jun-27 10:32N 40°45' E 013°53'0 0.0
2015-Jun-27 09:26N 40°45' E 013°53'0 0.0
2015-Jun-27 08:32N 40°45' E 013°53'0 0.0
2015-Jun-27 07:32N 40°45' E 013°53'0 0.0
2015-Jun-27 06:32N 40°45' E 013°53'0 0.0
2015-Jun-26 18:31N 40°45' E 013°53'0 0.0
2015-Jun-26 17:25N 40°45' E 013°53'0 0.0
2015-Jun-26 16:22N 40°45' E 013°53'0 0.0
2015-Jun-26 15:31N 40°45' E 013°53'0 0.0
2015-Jun-26 14:31N 40°45' E 013°53'1 0.7
2015-Jun-26 13:34N 40°46' E 013°54'1010.0
2015-Jun-26 12:33N 40°45' E 014°07'6 1.1
2015-Jun-26 07:33N 40°44' E 014°15'1010.3
2015-Jun-26 06:33N 40°34' E 014°15'0 0.1
2015-Jun-26 04:09N 40°34' E 014°14'0 0.0
2015-Jun-26 03:33N 40°34' E 014°14'0 0.0
2015-Jun-26 02:33N 40°34' E 014°14'0 0.0
2015-Jun-26 01:33N 40°34' E 014°14'0 0.0
2015-Jun-26 00:33N 40°34' E 014°14'0 0.0
2015-Jun-25 23:30N 40°34' E 014°14'0 0.0
2015-Jun-25 22:30N 40°34' E 014°14'0 0.0
2015-Jun-25 21:30N 40°34' E 014°14'0 0.0
2015-Jun-25 20:33N 40°34' E 014°14'0 0.0
2015-Jun-25 19:18N 40°34' E 014°14'0 0.0
2015-Jun-25 18:12N 40°34' E 014°14'0 0.0
2015-Jun-25 15:30N 40°34' E 014°14'0 0.0
2015-Jun-25 13:33N 40°34' E 014°14'0 0.0
2015-Jun-25 12:21N 40°34' E 014°14'0 0.0
2015-Jun-25 11:12N 40°34' E 014°14'0 0.0
2015-Jun-25 09:30N 40°34' E 014°14'0 0.0
2015-Jun-25 05:30N 40°34' E 014°14'0 0.0
2015-Jun-25 04:33N 40°34' E 014°14'0 0.0
2015-Jun-25 03:33N 40°34' E 014°14'0 0.0
2015-Jun-25 02:24N 40°34' E 014°14'0 0.0
2015-Jun-25 01:27N 40°34' E 014°14'0 0.0
2015-Jun-25 00:24N 40°34' E 014°14'0 0.0
2015-Jun-24 23:30N 40°34' E 014°14'0 0.0
2015-Jun-24 22:33N 40°34' E 014°14'0 0.0
2015-Jun-24 21:24N 40°34' E 014°14'0 0.0
2015-Jun-24 20:18N 40°34' E 014°14'0 0.0
2015-Jun-24 19:27N 40°34' E 014°14'0 0.0
2015-Jun-24 18:27N 40°34' E 014°14'0 0.0
2015-Jun-24 17:30N 40°34' E 014°14'0 0.0
2015-Jun-24 16:27N 40°34' E 014°14'0 0.0
2015-Jun-24 15:09N 40°34' E 014°14'0 0.0
2015-Jun-24 13:30N 40°34' E 014°14'0 0.0
2015-Jun-24 11:15N 40°34' E 014°14'0 0.0
2015-Jun-24 10:30N 40°34' E 014°14'0 0.0
2015-Jun-24 09:30N 40°34' E 014°14'0 0.0
2015-Jun-24 08:12N 40°34' E 014°14'1 0.3
2015-Jun-24 03:30N 40°33' E 014°14'0 0.0
2015-Jun-24 02:09N 40°33' E 014°14'0 0.0
2015-Jun-24 01:12N 40°33' E 014°14'0 0.0
2015-Jun-24 00:27N 40°33' E 014°14'0 0.0
2015-Jun-23 23:24N 40°33' E 014°14'0 0.0
2015-Jun-23 22:30N 40°33' E 014°14'0 0.0
2015-Jun-23 20:33N 40°33' E 014°14'0 0.0
2015-Jun-23 19:33N 40°33' E 014°14'0 0.0
2015-Jun-23 19:03N 40°33' E 014°14'  
Track history (hours):
 
Tides and Currents Weather Stations Pressure Air Temp Water Temp Dewpoint Dewpoint Depression Visibility Wind Speed Wind Dir Waves Ship Positions

Talitha

Last reported at 2015-Jul-03 10:08 UTC. Time now 2015-Jul-04 10:12 UTC.
Position N 42°23' E 011°13'.

Length 80 m; draft 4.5 m.

Type: Pleasure craft. MMSI: 310051000.

Date/timePositionNaut miles runAvg speedWind from/ knotsBaromVisibWave heightAir tempDewpointWater temp
2015-Jul-03 10:08N 42°23' E 011°13'0 0.0
2015-Jul-02 19:27N 42°23' E 011°13'0 0.0
2015-Jul-02 12:33N 42°24' E 011°13'71 7.1
2015-Jul-02 02:33N 41°25' E 012°06'1612.3
2015-Jul-02 01:16N 41°13' E 012°19'1012.1
2015-Jul-02 00:28N 41°05' E 012°28'1312.3
2015-Jul-01 23:26N 40°57' E 012°41'1112.4
2015-Jul-01 22:33N 40°51' E 012°53'1312.6
2015-Jul-01 21:33N 40°47' E 013°09'1212.5
2015-Jul-01 20:34N 40°44' E 013°24'1212.4
2015-Jul-01 19:33N 40°41' E 013°40'1212.3
2015-Jul-01 18:34N 40°39' E 013°56'1211.9
2015-Jul-01 17:33N 40°44' E 014°10'6 1.2
2015-Jul-01 12:31N 40°50' E 014°14'0 0.0
2015-Jul-01 11:28N 40°50' E 014°14'0 0.0
2015-Jul-01 10:31N 40°50' E 014°14'0 0.0
2015-Jul-01 09:31N 40°50' E 014°14'0 0.0
2015-Jul-01 08:28N 40°50' E 014°14'0 0.0
2015-Jun-30 06:13N 40°49' E 014°14'6 8.4
2015-Jun-30 05:33N 40°46' E 014°09'1110.6
2015-Jun-30 04:33N 40°46' E 013°55'1 1.1
2015-Jun-30 03:31N 40°45' E 013°53'0 0.0
2015-Jun-30 02:31N 40°45' E 013°53'0 0.0
2015-Jun-30 01:31N 40°45' E 013°53'0 0.0
2015-Jun-30 00:31N 40°45' E 013°53'0 0.0
2015-Jun-29 23:31N 40°45' E 013°53'0 0.0
2015-Jun-29 22:31N 40°45' E 013°53'0 0.0
2015-Jun-29 21:31N 40°45' E 013°53'0 0.0
2015-Jun-29 20:31N 40°45' E 013°53'0 0.0
2015-Jun-29 19:31N 40°45' E 013°53'0 0.0
2015-Jun-29 18:31N 40°45' E 013°53'0 0.0
2015-Jun-29 17:31N 40°45' E 013°53'0 0.0
2015-Jun-29 16:31N 40°45' E 013°53'0 0.0
2015-Jun-29 15:31N 40°45' E 013°53'0 0.0
2015-Jun-29 14:31N 40°45' E 013°53'0 0.0
2015-Jun-29 13:33N 40°45' E 013°53'0 0.0
2015-Jun-29 12:29N 40°45' E 013°53'0 0.0
2015-Jun-29 11:26N 40°45' E 013°53'0 0.0
2015-Jun-29 10:32N 40°45' E 013°53'0 0.0
2015-Jun-29 09:32N 40°45' E 013°53'0 0.0
2015-Jun-29 08:32N 40°45' E 013°53'0 0.0
2015-Jun-29 07:26N 40°45' E 013°53'0 0.0
2015-Jun-29 06:20N 40°45' E 013°53'0 0.0
2015-Jun-29 05:32N 40°45' E 013°53'0 0.0
2015-Jun-29 04:23N 40°45' E 013°53'0 0.0
2015-Jun-29 03:32N 40°45' E 013°53'0 0.0
2015-Jun-29 02:32N 40°45' E 013°53'0 0.0
2015-Jun-29 01:29N 40°45' E 013°53'0 0.0
2015-Jun-29 00:32N 40°45' E 013°53'0 0.0
2015-Jun-28 23:32N 40°45' E 013°53'0 0.0
2015-Jun-28 22:32N 40°45' E 013°53'0 0.0
2015-Jun-28 21:32N 40°45' E 013°53'0 0.0
2015-Jun-28 20:32N 40°45' E 013°53'0 0.0
2015-Jun-28 19:26N 40°45' E 013°53'0 0.0
2015-Jun-28 18:32N 40°45' E 013°53'0 0.0
2015-Jun-28 17:32N 40°45' E 013°53'0 0.0
2015-Jun-28 16:32N 40°45' E 013°53'0 0.0
2015-Jun-28 15:29N 40°45' E 013°53'0 0.0
2015-Jun-28 14:26N 40°45' E 013°53'0 0.0
2015-Jun-28 13:32N 40°45' E 013°53'0 0.0
2015-Jun-28 12:32N 40°45' E 013°53'0 0.0
2015-Jun-28 11:32N 40°45' E 013°53'0 0.0
2015-Jun-28 10:29N 40°45' E 013°53'0 0.0
2015-Jun-28 09:29N 40°45' E 013°53'0 0.0
2015-Jun-28 08:26N 40°45' E 013°53'0 0.0
2015-Jun-28 07:32N 40°45' E 013°53'0 0.0
2015-Jun-28 06:32N 40°45' E 013°53'0 0.0
2015-Jun-28 05:29N 40°45' E 013°53'0 0.0
2015-Jun-28 04:32N 40°45' E 013°53'0 0.0
2015-Jun-28 03:32N 40°45' E 013°53'0 0.0
2015-Jun-28 02:32N 40°45' E 013°53'0 0.0
2015-Jun-28 01:32N 40°45' E 013°53'0 0.0
2015-Jun-28 00:32N 40°45' E 013°53'0 0.0
2015-Jun-27 23:32N 40°45' E 013°53'0 0.0
2015-Jun-27 22:32N 40°45' E 013°53'0 0.0
2015-Jun-27 21:32N 40°45' E 013°53'0 0.0
2015-Jun-27 20:32N 40°45' E 013°53'0 0.0
2015-Jun-27 19:32N 40°45' E 013°53'0 0.0
2015-Jun-27 18:32N 40°45' E 013°53'0 0.0
2015-Jun-27 17:29N 40°45' E 013°53'0 0.0
2015-Jun-27 16:32N 40°45' E 013°53'0 0.0
2015-Jun-27 15:29N 40°45' E 013°53'0 0.0
2015-Jun-27 14:32N 40°45' E 013°53'0 0.0
2015-Jun-27 13:32N 40°45' E 013°53'0 0.0
2015-Jun-27 12:32N 40°45' E 013°53'0 0.0
2015-Jun-27 11:32N 40°45' E 013°53'0 0.0
2015-Jun-27 10:32N 40°45' E 013°53'0 0.0
2015-Jun-27 09:26N 40°45' E 013°53'0 0.0
2015-Jun-27 08:32N 40°45' E 013°53'0 0.0
2015-Jun-27 07:32N 40°45' E 013°53'0 0.0
2015-Jun-27 06:32N 40°45' E 013°53'0 0.0
2015-Jun-26 18:31N 40°45' E 013°53'0 0.0
2015-Jun-26 17:25N 40°45' E 013°53'0 0.0
2015-Jun-26 16:22N 40°45' E 013°53'0 0.0
2015-Jun-26 15:31N 40°45' E 013°53'0 0.0
2015-Jun-26 14:31N 40°45' E 013°53'1 0.7
2015-Jun-26 13:34N 40°46' E 013°54'1010.0
2015-Jun-26 12:33N 40°45' E 014°07'6 1.1
2015-Jun-26 07:33N 40°44' E 014°15'1010.3
2015-Jun-26 06:33N 40°34' E 014°15'0 0.1
2015-Jun-26 04:09N 40°34' E 014°14'0 0.0
2015-Jun-26 03:33N 40°34' E 014°14'0 0.0
2015-Jun-26 02:33N 40°34' E 014°14'0 0.0
2015-Jun-26 01:33N 40°34' E 014°14'0 0.0
2015-Jun-26 00:33N 40°34' E 014°14'0 0.0
2015-Jun-25 23:30N 40°34' E 014°14'0 0.0
2015-Jun-25 22:30N 40°34' E 014°14'0 0.0
2015-Jun-25 21:30N 40°34' E 014°14'0 0.0
2015-Jun-25 20:33N 40°34' E 014°14'0 0.0
2015-Jun-25 19:18N 40°34' E 014°14'0 0.0
2015-Jun-25 18:12N 40°34' E 014°14'0 0.0
2015-Jun-25 15:30N 40°34' E 014°14'0 0.0
2015-Jun-25 13:33N 40°34' E 014°14'0 0.0
2015-Jun-25 12:21N 40°34' E 014°14'0 0.0
2015-Jun-25 11:12N 40°34' E 014°14'0 0.0
2015-Jun-25 09:30N 40°34' E 014°14'0 0.0
2015-Jun-25 05:30N 40°34' E 014°14'0 0.0
2015-Jun-25 04:33N 40°34' E 014°14'0 0.0
2015-Jun-25 03:33N 40°34' E 014°14'0 0.0
2015-Jun-25 02:24N 40°34' E 014°14'0 0.0
2015-Jun-25 01:27N 40°34' E 014°14'0 0.0
2015-Jun-25 00:24N 40°34' E 014°14'0 0.0
2015-Jun-24 23:30N 40°34' E 014°14'0 0.0
2015-Jun-24 22:33N 40°34' E 014°14'0 0.0
2015-Jun-24 21:24N 40°34' E 014°14'0 0.0
2015-Jun-24 20:18N 40°34' E 014°14'0 0.0
2015-Jun-24 19:27N 40°34' E 014°14'0 0.0
2015-Jun-24 18:27N 40°34' E 014°14'0 0.0
2015-Jun-24 17:30N 40°34' E 014°14'0 0.0
2015-Jun-24 16:27N 40°34' E 014°14'0 0.0
2015-Jun-24 15:09N 40°34' E 014°14'0 0.0
2015-Jun-24 13:30N 40°34' E 014°14'0 0.0
2015-Jun-24 11:15N 40°34' E 014°14'0 0.0
2015-Jun-24 10:30N 40°34' E 014°14'0 0.0
2015-Jun-24 09:30N 40°34' E 014°14'0 0.0
2015-Jun-24 08:12N 40°34' E 014°14'1 0.3
2015-Jun-24 03:30N 40°33' E 014°14'0 0.0
2015-Jun-24 02:09N 40°33' E 014°14'0 0.0
2015-Jun-24 01:12N 40°33' E 014°14'0 0.0
2015-Jun-24 00:27N 40°33' E 014°14'0 0.0
2015-Jun-23 23:24N 40°33' E 014°14'0 0.0
2015-Jun-23 22:30N 40°33' E 014°14'0 0.0
2015-Jun-23 20:33N 40°33' E 014°14'0 0.0
2015-Jun-23 19:33N 40°33' E 014°14'0 0.0
2015-Jun-23 19:03N 40°33' E 014°14'  

Dump ship's entire track history